sensor_id;sensor_type;location;lat;lon;timestamp;pressure;altitude;pressure_sealevel;temperature;humidity
57827;BME280;43656;57.746;11.780;2023-03-12T00:02:11;99938.84;;;2.44;62.65
57827;BME280;43656;57.746;11.780;2023-03-12T00:04:37;99939.81;;;2.51;60.84
57827;BME280;43656;57.746;11.780;2023-03-12T00:07:03;99949.78;;;2.49;58.98
57827;BME280;43656;57.746;11.780;2023-03-12T00:09:33;99934.50;;;2.51;58.38
57827;BME280;43656;57.746;11.780;2023-03-12T00:11:59;99958.91;;;2.46;58.82
57827;BME280;43656;57.746;11.780;2023-03-12T00:14:24;99946.28;;;2.48;57.53
57827;BME280;43656;57.746;11.780;2023-03-12T00:16:49;99972.19;;;2.46;58.13
57827;BME280;43656;57.746;11.780;2023-03-12T00:19:15;99946.28;;;2.48;58.43
57827;BME280;43656;57.746;11.780;2023-03-12T00:21:40;99958.25;;;2.36;58.31
57827;BME280;43656;57.746;11.780;2023-03-12T00:24:06;99958.09;;;2.46;59.45
57827;BME280;43656;57.746;11.780;2023-03-12T00:26:32;99972.38;;;2.37;59.06
57827;BME280;43656;57.746;11.780;2023-03-12T00:28:57;99883.63;;;2.06;60.24
57827;BME280;43656;57.746;11.780;2023-03-12T00:31:26;99934.69;;;2.08;59.42
57827;BME280;43656;57.746;11.780;2023-03-12T00:33:52;99962.75;;;2.35;59.82
57827;BME280;43656;57.746;11.780;2023-03-12T00:36:20;99977.31;;;2.31;60.61
57827;BME280;43656;57.746;11.780;2023-03-12T00:38:49;99969.69;;;2.61;61.92
57827;BME280;43656;57.746;11.780;2023-03-12T00:41:14;99972.69;;;2.33;59.70
57827;BME280;43656;57.746;11.780;2023-03-12T00:43:40;99933.53;;;2.11;59.39
57827;BME280;43656;57.746;11.780;2023-03-12T00:46:05;99987.13;;;2.23;58.24
57827;BME280;43656;57.746;11.780;2023-03-12T00:48:31;99978.34;;;2.30;58.42
57827;BME280;43656;57.746;11.780;2023-03-12T00:50:56;99963.72;;;2.34;57.63
57827;BME280;43656;57.746;11.780;2023-03-12T00:53:22;99952.47;;;2.32;59.04
57827;BME280;43656;57.746;11.780;2023-03-12T00:55:47;99973.69;;;2.32;57.57
57827;BME280;43656;57.746;11.780;2023-03-12T00:58:13;99993.91;;;2.42;58.96
57827;BME280;43656;57.746;11.780;2023-03-12T01:00:38;99987.78;;;2.33;57.49
57827;BME280;43656;57.746;11.780;2023-03-12T01:03:03;99977.66;;;2.28;57.35
57827;BME280;43656;57.746;11.780;2023-03-12T01:05:29;99989.13;;;2.45;59.78
57827;BME280;43656;57.746;11.780;2023-03-12T01:07:56;99995.25;;;2.38;58.53
57827;BME280;43656;57.746;11.780;2023-03-12T01:10:21;99985.13;;;2.25;56.71
57827;BME280;43656;57.746;11.780;2023-03-12T01:12:47;99989.09;;;2.21;57.86
57827;BME280;43656;57.746;11.780;2023-03-12T01:15:15;99994.25;;;2.06;56.32
57827;BME280;43656;57.746;11.780;2023-03-12T01:17:40;100010.31;;;2.04;56.93
57827;BME280;43656;57.746;11.780;2023-03-12T01:20:07;99996.09;;;2.05;57.69
57827;BME280;43656;57.746;11.780;2023-03-12T01:22:33;100005.19;;;2.03;57.76
57827;BME280;43656;57.746;11.780;2023-03-12T01:24:59;100013.53;;;2.32;57.08
57827;BME280;43656;57.746;11.780;2023-03-12T01:27:24;100007.53;;;2.06;58.25
57827;BME280;43656;57.746;11.780;2023-03-12T01:29:50;100001.06;;;2.25;60.35
57827;BME280;43656;57.746;11.780;2023-03-12T01:32:15;100039.56;;;2.29;61.78
57827;BME280;43656;57.746;11.780;2023-03-12T01:34:42;100020.78;;;2.06;58.90
57827;BME280;43656;57.746;11.780;2023-03-12T01:37:07;100028.75;;;2.14;59.43
57827;BME280;43656;57.746;11.780;2023-03-12T01:39:33;100033.56;;;2.10;59.54
57827;BME280;43656;57.746;11.780;2023-03-12T01:41:58;100052.31;;;2.09;59.74
57827;BME280;43656;57.746;11.780;2023-03-12T01:44:24;99996.34;;;1.70;57.59
57827;BME280;43656;57.746;11.780;2023-03-12T01:46:50;100054.09;;;1.92;59.57
57827;BME280;43656;57.746;11.780;2023-03-12T01:49:25;100043.31;;;1.94;58.06
57827;BME280;43656;57.746;11.780;2023-03-12T01:51:53;100057.06;;;1.97;59.70
57827;BME280;43656;57.746;11.780;2023-03-12T01:54:34;100052.59;;;1.90;58.62
57827;BME280;43656;57.746;11.780;2023-03-12T01:57:02;100047.63;;;1.95;60.97
57827;BME280;43656;57.746;11.780;2023-03-12T01:59:38;100061.94;;;2.18;61.72
57827;BME280;43656;57.746;11.780;2023-03-12T02:02:05;100059.91;;;1.96;58.92
57827;BME280;43656;57.746;11.780;2023-03-12T02:04:32;100067.91;;;2.12;59.08
57827;BME280;43656;57.746;11.780;2023-03-12T02:09:31;100081.66;;;2.07;58.90
57827;BME280;43656;57.746;11.780;2023-03-12T02:11:58;100097.25;;;2.02;58.57
57827;BME280;43656;57.746;11.780;2023-03-12T02:14:23;100070.53;;;1.96;59.14
57827;BME280;43656;57.746;11.780;2023-03-12T02:16:49;100087.91;;;1.98;59.94
57827;BME280;43656;57.746;11.780;2023-03-12T02:19:22;100086.75;;;2.01;59.10
57827;BME280;43656;57.746;11.780;2023-03-12T02:21:51;100088.78;;;1.99;58.43
57827;BME280;43656;57.746;11.780;2023-03-12T02:24:35;100097.69;;;1.90;57.13
57827;BME280;43656;57.746;11.780;2023-03-12T02:27:05;100070.97;;;1.91;56.58
57827;BME280;43656;57.746;11.780;2023-03-12T02:29:33;100054.44;;;1.55;54.20
57827;BME280;43656;57.746;11.780;2023-03-12T02:32:01;100086.75;;;2.01;57.42
57827;BME280;43656;57.746;11.780;2023-03-12T02:34:28;100095.22;;;2.04;58.11
57827;BME280;43656;57.746;11.780;2023-03-12T02:36:54;100102.06;;;2.07;58.36
57827;BME280;43656;57.746;11.780;2023-03-12T02:39:19;100099.31;;;1.82;57.35
57827;BME280;43656;57.746;11.780;2023-03-12T02:41:50;100124.41;;;1.96;58.70
57827;BME280;43656;57.746;11.780;2023-03-12T02:44:20;100105.06;;;1.70;54.34
57827;BME280;43656;57.746;11.780;2023-03-12T02:46:49;100115.94;;;2.01;55.09
57827;BME280;43656;57.746;11.780;2023-03-12T02:49:16;100095.19;;;1.88;55.57
57827;BME280;43656;57.746;11.780;2023-03-12T02:51:44;100118.94;;;1.98;55.29
57827;BME280;43656;57.746;11.780;2023-03-12T02:54:10;100121.91;;;1.95;57.47
57827;BME280;43656;57.746;11.780;2023-03-12T02:56:37;100100.59;;;1.78;58.03
57827;BME280;43656;57.746;11.780;2023-03-12T02:59:03;100098.19;;;1.59;56.26
57827;BME280;43656;57.746;11.780;2023-03-12T03:01:29;100137.91;;;1.77;54.72
57827;BME280;43656;57.746;11.780;2023-03-12T03:03:59;100114.69;;;1.71;56.98
57827;BME280;43656;57.746;11.780;2023-03-12T03:06:24;100122.13;;;1.67;56.59
57827;BME280;43656;57.746;11.780;2023-03-12T03:08:50;100143.34;;;1.67;58.26
57827;BME280;43656;57.746;11.780;2023-03-12T03:11:16;100142.75;;;1.55;56.79
57827;BME280;43656;57.746;11.780;2023-03-12T03:13:41;100156.53;;;1.59;57.94
57827;BME280;43656;57.746;11.780;2023-03-12T03:16:07;100152.41;;;1.56;58.45
57827;BME280;43656;57.746;11.780;2023-03-12T03:18:32;100128.63;;;1.73;58.41
57827;BME280;43656;57.746;11.780;2023-03-12T03:21:01;100145.88;;;1.77;57.84
57827;BME280;43656;57.746;11.780;2023-03-12T03:23:26;100167.28;;;1.83;57.27
57827;BME280;43656;57.746;11.780;2023-03-12T03:25:52;100180.06;;;1.88;57.47
57827;BME280;43656;57.746;11.780;2023-03-12T03:28:20;100175.25;;;1.83;57.29
57827;BME280;43656;57.746;11.780;2023-03-12T03:30:45;100175.75;;;1.87;56.76
57827;BME280;43656;57.746;11.780;2023-03-12T03:33:11;100169.16;;;1.65;56.51
57827;BME280;43656;57.746;11.780;2023-03-12T03:35:37;100144.78;;;1.35;56.52
57827;BME280;43656;57.746;11.780;2023-03-12T03:38:02;100175.06;;;1.51;54.18
57827;BME280;43656;57.746;11.780;2023-03-12T03:40:28;100187.78;;;1.73;56.20
57827;BME280;43656;57.746;11.780;2023-03-12T03:42:54;100187.91;;;1.63;54.85
57827;BME280;43656;57.746;11.780;2023-03-12T03:45:19;100196.78;;;1.80;56.00
57827;BME280;43656;57.746;11.780;2023-03-12T03:47:45;100181.91;;;1.61;57.35
57827;BME280;43656;57.746;11.780;2023-03-12T03:50:11;100190.97;;;1.51;58.99
57827;BME280;43656;57.746;11.780;2023-03-12T03:52:37;100193.41;;;1.70;57.03
57827;BME280;43656;57.746;11.780;2023-03-12T03:55:02;100184.03;;;1.58;56.28
57827;BME280;43656;57.746;11.780;2023-03-12T03:57:28;100186.13;;;1.46;57.09
57827;BME280;43656;57.746;11.780;2023-03-12T03:59:54;100201.94;;;1.56;58.55
57827;BME280;43656;57.746;11.780;2023-03-12T04:02:20;100182.53;;;1.55;56.85
57827;BME280;43656;57.746;11.780;2023-03-12T04:04:46;100196.16;;;1.60;57.52
57827;BME280;43656;57.746;11.780;2023-03-12T04:07:11;100222.69;;;1.60;56.86
57827;BME280;43656;57.746;11.780;2023-03-12T04:09:37;100199.91;;;1.50;57.58
57827;BME280;43656;57.746;11.780;2023-03-12T04:12:02;100202.97;;;1.37;54.75
57827;BME280;43656;57.746;11.780;2023-03-12T04:14:28;100216.34;;;1.53;56.38
57827;BME280;43656;57.746;11.780;2023-03-12T04:16:53;100217.91;;;1.64;56.33
57827;BME280;43656;57.746;11.780;2023-03-12T04:19:19;100219.13;;;1.52;54.40
57827;BME280;43656;57.746;11.780;2023-03-12T04:21:44;100218.78;;;1.47;53.79
57827;BME280;43656;57.746;11.780;2023-03-12T04:24:14;100193.97;;;1.30;54.77
57827;BME280;43656;57.746;11.780;2023-03-12T04:26:40;100210.81;;;1.47;54.96
57827;BME280;43656;57.746;11.780;2023-03-12T04:29:05;100221.56;;;1.45;55.69
57827;BME280;43656;57.746;11.780;2023-03-12T04:31:31;100238.69;;;1.51;56.57
57827;BME280;43656;57.746;11.780;2023-03-12T04:33:56;100209.56;;;1.59;56.28
57827;BME280;43656;57.746;11.780;2023-03-12T04:36:22;100212.19;;;1.51;58.04
57827;BME280;43656;57.746;11.780;2023-03-12T04:38:48;100207.28;;;1.38;56.88
57827;BME280;43656;57.746;11.780;2023-03-12T04:41:14;100219.25;;;1.68;55.69
57827;BME280;43656;57.746;11.780;2023-03-12T04:43:40;100235.78;;;1.62;55.06
57827;BME280;43656;57.746;11.780;2023-03-12T04:46:06;100218.81;;;1.55;56.92
57827;BME280;43656;57.746;11.780;2023-03-12T04:48:33;100243.69;;;1.54;57.04
57827;BME280;43656;57.746;11.780;2023-03-12T04:50:58;100225.38;;;1.69;56.38
57827;BME280;43656;57.746;11.780;2023-03-12T04:53:24;100241.66;;;1.48;56.42
57827;BME280;43656;57.746;11.780;2023-03-12T04:55:50;100220.38;;;1.39;56.40
57827;BME280;43656;57.746;11.780;2023-03-12T04:58:16;100242.34;;;1.50;57.54
57827;BME280;43656;57.746;11.780;2023-03-12T05:00:42;100247.34;;;1.53;58.00
57827;BME280;43656;57.746;11.780;2023-03-12T05:03:07;100253.25;;;1.47;57.04
57827;BME280;43656;57.746;11.780;2023-03-12T05:05:33;100254.00;;;1.39;55.47
57827;BME280;43656;57.746;11.780;2023-03-12T05:08:00;100240.59;;;1.40;55.42
57827;BME280;43656;57.746;11.780;2023-03-12T05:10:25;100261.69;;;1.68;56.15
57827;BME280;43656;57.746;11.780;2023-03-12T05:12:51;100239.91;;;1.82;58.13
57827;BME280;43656;57.746;11.780;2023-03-12T05:15:16;100250.28;;;1.50;57.67
57827;BME280;43656;57.746;11.780;2023-03-12T05:17:43;100264.91;;;1.54;55.59
57827;BME280;43656;57.746;11.780;2023-03-12T05:20:09;100272.34;;;1.50;54.53
57827;BME280;43656;57.746;11.780;2023-03-12T05:22:35;100266.84;;;1.52;53.82
57827;BME280;43656;57.746;11.780;2023-03-12T05:25:01;100272.97;;;1.70;55.10
57827;BME280;43656;57.746;11.780;2023-03-12T05:27:27;100269.91;;;1.57;56.27
57827;BME280;43656;57.746;11.780;2023-03-12T05:29:53;100285.94;;;1.55;54.55
57827;BME280;43656;57.746;11.780;2023-03-12T05:32:18;100286.59;;;1.49;53.94
57827;BME280;43656;57.746;11.780;2023-03-12T05:34:44;100283.78;;;1.33;55.54
57827;BME280;43656;57.746;11.780;2023-03-12T05:37:09;100276.13;;;1.48;55.21
57827;BME280;43656;57.746;11.780;2023-03-12T05:39:34;100291.72;;;1.51;55.09
57827;BME280;43656;57.746;11.780;2023-03-12T05:42:00;100295.88;;;1.35;53.40
57827;BME280;43656;57.746;11.780;2023-03-12T05:44:26;100294.66;;;1.48;52.96
57827;BME280;43656;57.746;11.780;2023-03-12T05:46:52;100301.50;;;1.50;53.43
57827;BME280;43656;57.746;11.780;2023-03-12T05:49:19;100303.69;;;1.55;53.94
57827;BME280;43656;57.746;11.780;2023-03-12T05:51:46;100289.06;;;1.51;54.41
57827;BME280;43656;57.746;11.780;2023-03-12T05:54:11;100302.53;;;1.57;53.17
57827;BME280;43656;57.746;11.780;2023-03-12T05:56:37;100310.88;;;1.62;53.48
57827;BME280;43656;57.746;11.780;2023-03-12T05:59:02;100309.59;;;1.49;53.21
57827;BME280;43656;57.746;11.780;2023-03-12T06:01:29;100296.25;;;1.58;55.29
57827;BME280;43656;57.746;11.780;2023-03-12T06:03:55;100284.16;;;1.56;52.59
57827;BME280;43656;57.746;11.780;2023-03-12T06:06:21;100298.91;;;1.58;52.75
57827;BME280;43656;57.746;11.780;2023-03-12T06:08:47;100295.63;;;1.82;53.32
57827;BME280;43656;57.746;11.780;2023-03-12T06:11:13;100287.97;;;1.61;52.67
57827;BME280;43656;57.746;11.780;2023-03-12T06:13:39;100315.72;;;1.67;54.46
57827;BME280;43656;57.746;11.780;2023-03-12T06:16:16;100309.19;;;1.61;53.22
57827;BME280;43656;57.746;11.780;2023-03-12T06:18:42;100303.75;;;1.63;54.54
57827;BME280;43656;57.746;11.780;2023-03-12T06:23:33;100311.75;;;1.71;54.00
57827;BME280;43656;57.746;11.780;2023-03-12T06:25:58;100316.69;;;1.84;52.56
57827;BME280;43656;57.746;11.780;2023-03-12T06:28:24;100297.19;;;1.75;53.66
57827;BME280;43656;57.746;11.780;2023-03-12T06:30:52;100316.31;;;1.79;53.82
57827;BME280;43656;57.746;11.780;2023-03-12T06:33:17;100324.41;;;1.77;53.56
57827;BME280;43656;57.746;11.780;2023-03-12T06:35:43;100325.47;;;2.10;53.72
57827;BME280;43656;57.746;11.780;2023-03-12T06:38:09;100300.94;;;1.82;54.02
57827;BME280;43656;57.746;11.780;2023-03-12T06:40:35;100335.81;;;2.22;53.55
57827;BME280;43656;57.746;11.780;2023-03-12T06:43:00;100321.53;;;2.15;52.25
57827;BME280;43656;57.746;11.780;2023-03-12T06:45:26;100332.75;;;2.08;53.35
57827;BME280;43656;57.746;11.780;2023-03-12T06:47:51;100324.03;;;2.16;54.09
57827;BME280;43656;57.746;11.780;2023-03-12T06:50:16;100328.53;;;1.98;53.34
57827;BME280;43656;57.746;11.780;2023-03-12T06:52:42;100337.34;;;2.24;53.91
57827;BME280;43656;57.746;11.780;2023-03-12T06:55:07;100328.41;;;2.25;53.10
57827;BME280;43656;57.746;11.780;2023-03-12T06:57:33;100332.34;;;2.21;51.93
57827;BME280;43656;57.746;11.780;2023-03-12T06:59:58;100331.09;;;2.33;53.59
57827;BME280;43656;57.746;11.780;2023-03-12T07:02:24;100311.00;;;2.31;53.24
57827;BME280;43656;57.746;11.780;2023-03-12T07:04:49;100307.22;;;2.07;53.75
57827;BME280;43656;57.746;11.780;2023-03-12T07:07:15;100339.09;;;2.42;52.50
57827;BME280;43656;57.746;11.780;2023-03-12T07:09:41;100343.66;;;2.57;53.67
57827;BME280;43656;57.746;11.780;2023-03-12T07:12:07;100346.53;;;2.38;52.11
57827;BME280;43656;57.746;11.780;2023-03-12T07:14:33;100350.69;;;2.32;52.62
57827;BME280;43656;57.746;11.780;2023-03-12T07:16:58;100336.03;;;2.28;53.92
57827;BME280;43656;57.746;11.780;2023-03-12T07:19:26;100365.53;;;2.51;51.95
57827;BME280;43656;57.746;11.780;2023-03-12T07:21:54;100360.75;;;2.55;52.05
57827;BME280;43656;57.746;11.780;2023-03-12T07:24:19;100358.06;;;2.47;52.01
57827;BME280;43656;57.746;11.780;2023-03-12T07:26:45;100352.13;;;2.53;52.32
57827;BME280;43656;57.746;11.780;2023-03-12T07:29:10;100356.75;;;2.51;53.24
57827;BME280;43656;57.746;11.780;2023-03-12T07:31:36;100359.56;;;2.83;52.21
57827;BME280;43656;57.746;11.780;2023-03-12T07:34:01;100359.44;;;2.93;52.54
57827;BME280;43656;57.746;11.780;2023-03-12T07:36:27;100323.63;;;2.63;53.04
57827;BME280;43656;57.746;11.780;2023-03-12T07:38:54;100356.47;;;3.04;53.03
57827;BME280;43656;57.746;11.780;2023-03-12T07:41:19;100321.38;;;2.42;51.49
57827;BME280;43656;57.746;11.780;2023-03-12T07:43:45;100356.09;;;2.49;50.29
57827;BME280;43656;57.746;11.780;2023-03-12T07:46:11;100360.63;;;2.65;52.12
57827;BME280;43656;57.746;11.780;2023-03-12T07:48:36;100364.69;;;2.43;52.43
57827;BME280;43656;57.746;11.780;2023-03-12T07:51:03;100353.34;;;2.32;51.79
57827;BME280;43656;57.746;11.780;2023-03-12T07:53:28;100357.47;;;2.35;49.53
57827;BME280;43656;57.746;11.780;2023-03-12T07:55:54;100369.28;;;2.32;50.24
57827;BME280;43656;57.746;11.780;2023-03-12T07:58:19;100370.13;;;2.67;52.26
57827;BME280;43656;57.746;11.780;2023-03-12T08:00:45;100379.19;;;2.91;51.06
57827;BME280;43656;57.746;11.780;2023-03-12T08:03:11;100375.94;;;2.71;51.45
57827;BME280;43656;57.746;11.780;2023-03-12T08:05:37;100366.81;;;2.65;51.85
57827;BME280;43656;57.746;11.780;2023-03-12T08:08:03;100379.72;;;2.60;51.40
57827;BME280;43656;57.746;11.780;2023-03-12T08:10:28;100373.22;;;2.89;50.76
57827;BME280;43656;57.746;11.780;2023-03-12T08:12:53;100377.75;;;2.70;50.47
57827;BME280;43656;57.746;11.780;2023-03-12T08:15:19;100372.19;;;2.81;49.79
57827;BME280;43656;57.746;11.780;2023-03-12T08:17:44;100379.19;;;2.91;50.97
57827;BME280;43656;57.746;11.780;2023-03-12T08:20:10;100373.16;;;2.80;50.64
57827;BME280;43656;57.746;11.780;2023-03-12T08:22:37;100370.38;;;2.82;49.85
57827;BME280;43656;57.746;11.780;2023-03-12T08:25:03;100364.47;;;2.62;49.46
57827;BME280;43656;57.746;11.780;2023-03-12T08:27:28;100370.94;;;2.68;51.29
57827;BME280;43656;57.746;11.780;2023-03-12T08:29:54;100371.06;;;2.92;50.61
57827;BME280;43656;57.746;11.780;2023-03-12T08:32:19;100367.91;;;2.89;51.54
57827;BME280;43656;57.746;11.780;2023-03-12T08:34:45;100379.81;;;2.85;52.37
57827;BME280;43656;57.746;11.780;2023-03-12T08:37:10;100378.84;;;2.86;51.19
57827;BME280;43656;57.746;11.780;2023-03-12T08:39:36;100366.50;;;2.76;49.95
57827;BME280;43656;57.746;11.780;2023-03-12T08:42:02;100370.50;;;2.80;50.47
57827;BME280;43656;57.746;11.780;2023-03-12T08:44:28;100377.84;;;2.87;50.28
57827;BME280;43656;57.746;11.780;2023-03-12T08:46:53;100361.50;;;2.65;48.49
57827;BME280;43656;57.746;11.780;2023-03-12T08:49:20;100378.28;;;2.74;49.27
57827;BME280;43656;57.746;11.780;2023-03-12T08:51:45;100385.63;;;2.80;49.06
57827;BME280;43656;57.746;11.780;2023-03-12T08:54:11;100394.78;;;2.86;50.40
57827;BME280;43656;57.746;11.780;2023-03-12T08:56:36;100385.06;;;3.11;50.95
57827;BME280;43656;57.746;11.780;2023-03-12T08:59:06;100389.94;;;3.15;48.67
57827;BME280;43656;57.746;11.780;2023-03-12T09:01:32;100389.66;;;3.35;48.62
57827;BME280;43656;57.746;11.780;2023-03-12T09:03:57;100388.16;;;3.32;49.12
57827;BME280;43656;57.746;11.780;2023-03-12T09:06:22;100396.31;;;3.39;49.86
57827;BME280;43656;57.746;11.780;2023-03-12T09:08:48;100390.94;;;3.22;49.55
57827;BME280;43656;57.746;11.780;2023-03-12T09:11:16;100392.97;;;3.28;51.84
57827;BME280;43656;57.746;11.780;2023-03-12T09:13:41;100380.63;;;3.19;49.80
57827;BME280;43656;57.746;11.780;2023-03-12T09:16:07;100384.97;;;3.28;49.89
57827;BME280;43656;57.746;11.780;2023-03-12T09:18:33;100374.25;;;3.04;50.05
57827;BME280;43656;57.746;11.780;2023-03-12T09:20:59;100400.28;;;3.43;48.53
57827;BME280;43656;57.746;11.780;2023-03-12T09:23:25;100399.47;;;3.50;48.45
57827;BME280;43656;57.746;11.780;2023-03-12T09:25:51;100397.00;;;3.49;49.82
57827;BME280;43656;57.746;11.780;2023-03-12T09:28:17;100403.13;;;3.49;47.77
57827;BME280;43656;57.746;11.780;2023-03-12T09:30:43;100378.34;;;3.41;47.92
57827;BME280;43656;57.746;11.780;2023-03-12T09:33:09;100396.66;;;3.52;48.15
57827;BME280;43656;57.746;11.780;2023-03-12T09:35:35;100395.19;;;3.74;49.54
57827;BME280;43656;57.746;11.780;2023-03-12T09:38:00;100384.22;;;3.77;48.29
57827;BME280;43656;57.746;11.780;2023-03-12T09:40:29;100387.06;;;3.92;48.45
57827;BME280;43656;57.746;11.780;2023-03-12T09:45:26;100372.75;;;3.68;48.29
57827;BME280;43656;57.746;11.780;2023-03-12T09:47:54;100384.25;;;4.02;47.10
57827;BME280;43656;57.746;11.780;2023-03-12T09:50:29;100390.38;;;3.94;47.68
57827;BME280;43656;57.746;11.780;2023-03-12T09:53:00;100390.19;;;3.87;47.81
57827;BME280;43656;57.746;11.780;2023-03-12T09:55:31;100389.69;;;3.84;48.67
57827;BME280;43656;57.746;11.780;2023-03-12T09:57:59;100387.72;;;3.69;47.43
57827;BME280;43656;57.746;11.780;2023-03-12T10:00:34;100385.22;;;3.76;48.59
57827;BME280;43656;57.746;11.780;2023-03-12T10:08:50;100391.72;;;4.14;46.61
57827;BME280;43656;57.746;11.780;2023-03-12T10:25:03;100384.59;;;4.87;45.75
57827;BME280;43656;57.746;11.780;2023-03-12T10:27:34;100368.44;;;4.72;46.01
57827;BME280;43656;57.746;11.780;2023-03-12T10:30:15;100392.47;;;5.03;45.93
57827;BME280;43656;57.746;11.780;2023-03-12T10:32:46;100392.53;;;4.95;46.42
57827;BME280;43656;57.746;11.780;2023-03-12T10:35:18;100366.66;;;4.56;46.65
57827;BME280;43656;57.746;11.780;2023-03-12T10:37:58;100406.47;;;5.13;46.48
57827;BME280;43656;57.746;11.780;2023-03-12T10:40:32;100401.19;;;5.59;46.07
57827;BME280;43656;57.746;11.780;2023-03-12T10:42:59;100410.78;;;5.46;45.26
57827;BME280;43656;57.746;11.780;2023-03-12T10:46:05;100417.63;;;5.17;45.85
57827;BME280;43656;57.746;11.780;2023-03-12T10:48:40;100413.31;;;5.47;46.03
57827;BME280;43656;57.746;11.780;2023-03-12T10:51:11;100407.16;;;5.38;45.85
57827;BME280;43656;57.746;11.780;2023-03-12T10:53:41;100417.84;;;5.38;46.18
57827;BME280;43656;57.746;11.780;2023-03-12T10:56:19;100418.09;;;5.52;45.76
57827;BME280;43656;57.746;11.780;2023-03-12T10:58:50;100425.91;;;5.30;44.56
57827;BME280;43656;57.746;11.780;2023-03-12T11:03:47;100424.34;;;5.36;43.05
57827;BME280;43656;57.746;11.780;2023-03-12T11:06:23;100420.50;;;5.70;43.14
57827;BME280;43656;57.746;11.780;2023-03-12T11:09:21;100424.59;;;5.49;43.85
57827;BME280;43656;57.746;11.780;2023-03-12T11:11:48;100403.66;;;5.38;43.85
57827;BME280;43656;57.746;11.780;2023-03-12T11:14:20;100428.38;;;5.32;44.73
57827;BME280;43656;57.746;11.780;2023-03-12T11:16:45;100420.41;;;5.55;44.01
57827;BME280;43656;57.746;11.780;2023-03-12T11:19:13;100420.13;;;5.73;43.83
57827;BME280;43656;57.746;11.780;2023-03-12T11:21:39;100423.97;;;5.47;44.00
57827;BME280;43656;57.746;11.780;2023-03-12T11:24:18;100430.28;;;5.46;45.11
57827;BME280;43656;57.746;11.780;2023-03-12T11:26:52;100429.56;;;5.60;44.93
57827;BME280;43656;57.746;11.780;2023-03-12T11:29:33;100439.75;;;6.11;43.88
57827;BME280;43656;57.746;11.780;2023-03-12T11:32:30;100417.34;;;5.97;45.02
57827;BME280;43656;57.746;11.780;2023-03-12T11:34:58;100428.00;;;6.20;43.91
57827;BME280;43656;57.746;11.780;2023-03-12T11:40:29;100433.06;;;5.30;44.00
57827;BME280;43656;57.746;11.780;2023-03-12T11:54:00;100416.59;;;5.49;43.18
57827;BME280;43656;57.746;11.780;2023-03-12T11:56:35;100400.69;;;5.64;43.69
57827;BME280;43656;57.746;11.780;2023-03-12T11:59:21;100407.19;;;5.61;43.52
57827;BME280;43656;57.746;11.780;2023-03-12T12:07:38;100383.97;;;5.39;43.85
57827;BME280;43656;57.746;11.780;2023-03-12T12:10:21;100376.94;;;5.46;43.88
57827;BME280;43656;57.746;11.780;2023-03-12T12:13:56;100377.28;;;5.66;44.01
57827;BME280;43656;57.746;11.780;2023-03-12T12:16:54;100369.78;;;5.70;43.93
57827;BME280;43656;57.746;11.780;2023-03-12T12:25:15;100353.53;;;5.33;44.24
57827;BME280;43656;57.746;11.780;2023-03-12T12:30:46;100361.03;;;5.30;45.42
57827;BME280;43656;57.746;11.780;2023-03-12T12:36:03;100363.59;;;5.46;44.43
57827;BME280;43656;57.746;11.780;2023-03-12T12:38:41;100361.53;;;5.56;44.51
57827;BME280;43656;57.746;11.780;2023-03-12T12:41:17;100356.84;;;5.58;44.99
57827;BME280;43656;57.746;11.780;2023-03-12T12:43:47;100343.84;;;5.55;44.06
57827;BME280;43656;57.746;11.780;2023-03-12T12:46:30;100355.22;;;5.49;43.63
57827;BME280;43656;57.746;11.780;2023-03-12T12:49:02;100362.63;;;5.39;44.48
57827;BME280;43656;57.746;11.780;2023-03-12T12:51:35;100360.81;;;5.62;44.37
57827;BME280;43656;57.746;11.780;2023-03-12T12:54:15;100355.09;;;5.97;44.17
57827;BME280;43656;57.746;11.780;2023-03-12T12:56:59;100335.69;;;6.03;43.67
57827;BME280;43656;57.746;11.780;2023-03-12T13:01:57;100359.59;;;5.73;43.06
57827;BME280;43656;57.746;11.780;2023-03-12T13:04:27;100345.00;;;5.61;42.81
57827;BME280;43656;57.746;11.780;2023-03-12T13:06:58;100336.31;;;5.36;42.58
57827;BME280;43656;57.746;11.780;2023-03-12T13:14:40;100348.25;;;5.71;43.08
57827;BME280;43656;57.746;11.780;2023-03-12T13:17:18;100351.63;;;5.65;42.58
57827;BME280;43656;57.746;11.780;2023-03-12T13:19:49;100325.16;;;5.55;42.60
57827;BME280;43656;57.746;11.780;2023-03-12T13:25:25;100359.63;;;5.88;42.87
57827;BME280;43656;57.746;11.780;2023-03-12T13:28:00;100357.19;;;5.78;43.01
57827;BME280;43656;57.746;11.780;2023-03-12T13:33:11;100373.13;;;5.95;43.05
57827;BME280;43656;57.746;11.780;2023-03-12T13:35:38;100366.97;;;5.86;43.28
57827;BME280;43656;57.746;11.780;2023-03-12T13:38:06;100368.94;;;5.92;43.64
57827;BME280;43656;57.746;11.780;2023-03-12T13:40:57;100364.75;;;5.98;43.24
57827;BME280;43656;57.746;11.780;2023-03-12T13:43:41;100371.00;;;5.82;43.58
57827;BME280;43656;57.746;11.780;2023-03-12T13:48:44;100362.06;;;5.52;44.36
57827;BME280;43656;57.746;11.780;2023-03-12T13:51:15;100355.19;;;5.80;44.95
57827;BME280;43656;57.746;11.780;2023-03-12T13:53:47;100359.06;;;6.16;44.20
57827;BME280;43656;57.746;11.780;2023-03-12T13:56:17;100349.91;;;6.33;44.15
57827;BME280;43656;57.746;11.780;2023-03-12T13:59:04;100363.81;;;6.58;43.90
57827;BME280;43656;57.746;11.780;2023-03-12T14:01:34;100352.22;;;6.36;43.58
57827;BME280;43656;57.746;11.780;2023-03-12T14:04:09;100338.19;;;6.34;43.81
57827;BME280;43656;57.746;11.780;2023-03-12T14:09:36;100358.88;;;6.70;43.77
57827;BME280;43656;57.746;11.780;2023-03-12T14:12:08;100371.31;;;6.77;43.68
57827;BME280;43656;57.746;11.780;2023-03-12T14:17:21;100343.47;;;6.57;44.33
57827;BME280;43656;57.746;11.780;2023-03-12T14:19:50;100336.84;;;6.53;44.18